Time;durP1;ratioP1;P1;durP2;ratioP2;P2;SDS_P1;SDS_P2;PMS_P1;PMS_P2;Temp;Humidity;BMP_temperature;BMP_pressure;BME280_temperature;BME280_humidity;BME280_pressure;Samples;Min_cycle;Max_cycle;Signal;HPM_P1;HPM_P2
2022/05/31 00:01:17;;;;;;;4.57;3.07;;;9.00;62.30;;;;;;5021839;28;20545;-52
2022/05/31 00:03:45;;;;;;;5.97;3.57;;;9.00;57.50;;;;;;5023156;28;20678;-51
2022/05/31 00:06:12;;;;;;;4.07;2.83;;;9.10;57.40;;;;;;5025656;28;20465;-52
2022/05/31 00:08:38;;;;;;;4.80;3.17;;;9.10;53.50;;;;;;5023950;28;20964;-52
2022/05/31 00:11:05;;;;;;;3.83;3.10;;;9.10;52.30;;;;;;5024145;28;20940;-52
2022/05/31 00:13:31;;;;;;;4.10;3.30;;;9.20;56.80;;;;;;5021114;28;20586;-52
2022/05/31 00:15:58;;;;;;;9.03;3.47;;;9.20;53.60;;;;;;5022950;28;20553;-52
2022/05/31 00:18:24;;;;;;;3.83;3.33;;;9.20;47.60;;;;;;5023892;28;20474;-52
2022/05/31 00:20:52;;;;;;;4.00;3.60;;;9.20;59.80;;;;;;5023266;28;20547;-52
2022/05/31 00:23:20;;;;;;;3.67;3.37;;;9.20;59.30;;;;;;5024050;28;21009;-51
2022/05/31 00:25:46;;;;;;;6.17;3.20;;;9.30;55.90;;;;;;5024489;28;20593;-52
2022/05/31 00:28:13;;;;;;;5.23;3.27;;;9.30;55.40;;;;;;5023604;28;20481;-53
2022/05/31 00:30:40;;;;;;;4.17;3.37;;;9.30;56.60;;;;;;5024124;28;20466;-52
2022/05/31 00:33:10;;;;;;;4.90;3.37;;;9.30;51.40;;;;;;5021075;28;20575;-53
2022/05/31 00:35:40;;;;;;;3.00;2.77;;;9.30;56.60;;;;;;5024519;28;20540;-53
2022/05/31 00:38:09;;;;;;;3.00;2.80;;;9.30;60.50;;;;;;5023275;28;20495;-52
2022/05/31 00:40:37;;;;;;;4.83;2.67;;;9.30;60.30;;;;;;5023097;28;20558;-53
2022/05/31 00:43:06;;;;;;;4.20;3.37;;;9.30;57.50;;;;;;5020594;28;20478;-53
2022/05/31 00:45:37;;;;;;;3.63;3.30;;;9.30;57.30;;;;;;5022518;28;20471;-52
2022/05/31 00:48:07;;;;;;;4.13;3.43;;;9.40;55.60;;;;;;5022376;28;20513;-52
2022/05/31 00:50:38;;;;;;;3.40;3.10;;;9.30;56.80;;;;;;5022643;28;20466;-52
2022/05/31 00:53:10;;;;;;;4.60;3.47;;;9.40;54.40;;;;;;5022932;28;20517;-52
2022/05/31 00:55:43;;;;;;;4.87;3.73;;;9.50;59.60;;;;;;5024672;28;20975;-51
2022/05/31 00:58:15;;;;;;;4.17;3.20;;;9.50;57.70;;;;;;5023510;28;20487;-52
2022/05/31 01:00:42;;;;;;;7.57;3.50;;;9.50;59.70;;;;;;5024747;28;20463;-52
2022/05/31 01:03:12;;;;;;;17.30;3.50;;;9.50;60.30;;;;;;5023448;28;20479;-51
2022/05/31 01:05:39;;;;;;;3.77;3.50;;;9.50;58.60;;;;;;5021092;28;20558;-52
2022/05/31 01:08:06;;;;;;;4.07;3.10;;;9.50;62.00;;;;;;5022214;28;20553;-51
2022/05/31 01:10:34;;;;;;;4.60;3.03;;;9.50;58.00;;;;;;5020304;28;20558;-51
2022/05/31 01:13:02;;;;;;;3.83;2.93;;;9.50;57.20;;;;;;5021960;28;20455;-53
2022/05/31 01:15:29;;;;;;;2.90;2.70;;;9.50;57.10;;;;;;5022560;28;20466;-52
2022/05/31 01:17:56;;;;;;;3.20;3.00;;;9.50;54.00;;;;;;5024236;28;20483;-51
2022/05/31 01:20:24;;;;;;;3.97;3.50;;;9.50;57.80;;;;;;5021605;28;20620;-52
2022/05/31 01:22:53;;;;;;;6.73;3.33;;;9.50;60.00;;;;;;5023822;28;20459;-52
2022/05/31 01:25:51;;;;;;;4.33;3.40;;;9.60;60.00;;;;;;5023905;28;20490;-52
2022/05/31 01:28:26;;;;;;;3.40;3.10;;;9.50;62.70;;;;;;4997954;28;20836;-52
2022/05/31 01:30:57;;;;;;;4.07;2.93;;;9.50;59.60;;;;;;5018103;28;20532;-51
2022/05/31 01:33:30;;;;;;;3.57;3.20;;;9.50;62.90;;;;;;5028929;28;20558;-52
2022/05/31 01:36:02;;;;;;;7.50;3.90;;;9.60;64.60;;;;;;5024797;28;20583;-51
2022/05/31 01:38:33;;;;;;;3.87;3.17;;;9.60;63.10;;;;;;5023533;28;20488;-52
2022/05/31 01:41:10;;;;;;;2.63;2.43;;;9.60;64.30;;;;;;5030242;28;20566;-53
2022/05/31 01:43:37;;;;;;;5.90;2.97;;;9.60;65.90;;;;;;5028624;28;20577;-53
2022/05/31 01:46:08;;;;;;;3.37;3.07;;;9.60;69.40;;;;;;5029431;28;20497;-52
2022/05/31 01:48:37;;;;;;;7.50;3.10;;;9.60;68.20;;;;;;5027662;28;20490;-53
2022/05/31 01:51:05;;;;;;;2.93;2.67;;;9.60;67.90;;;;;;5020726;28;20546;-51
2022/05/31 01:53:34;;;;;;;3.03;2.80;;;9.60;71.70;;;;;;5027959;28;20524;-52
2022/05/31 01:56:01;;;;;;;4.20;2.60;;;9.60;71.10;;;;;;5026013;28;20557;-52
2022/05/31 01:58:30;;;;;;;3.33;3.03;;;9.60;69.90;;;;;;5025677;28;20577;-52
2022/05/31 02:00:57;;;;;;;3.07;2.87;;;9.60;69.30;;;;;;5023549;28;20562;-51
2022/05/31 02:03:24;;;;;;;3.17;2.90;;;9.60;59.80;;;;;;5025174;28;21367;-52
2022/05/31 02:05:52;;;;;;;3.20;3.00;;;9.60;65.60;;;;;;5028256;28;20550;-51
2022/05/31 02:08:22;;;;;;;3.37;3.03;;;9.60;61.20;;;;;;5028694;28;20882;-51
2022/05/31 02:10:50;;;;;;;7.60;3.17;;;9.60;61.30;;;;;;5027879;28;20546;-52
2022/05/31 02:13:18;;;;;;;5.37;2.50;;;9.60;61.70;;;;;;5028921;28;20494;-51
2022/05/31 02:15:45;;;;;;;3.43;3.17;;;9.60;65.50;;;;;;5024498;28;20908;-52
2022/05/31 02:18:12;;;;;;;5.57;2.90;;;9.50;68.00;;;;;;5025123;28;21658;-51
2022/05/31 02:20:39;;;;;;;5.07;2.37;;;9.50;67.00;;;;;;5025097;28;20459;-52
2022/05/31 02:23:06;;;;;;;2.77;2.43;;;9.50;61.20;;;;;;5026348;28;20547;-51
2022/05/31 02:25:34;;;;;;;3.27;2.90;;;9.60;63.00;;;;;;5027082;28;20498;-53
2022/05/31 02:28:00;;;;;;;2.77;2.57;;;9.60;62.00;;;;;;5025258;28;20881;-51
2022/05/31 02:30:27;;;;;;;2.53;2.37;;;9.60;68.30;;;;;;5026607;28;20550;-52
2022/05/31 02:32:53;;;;;;;4.40;3.10;;;9.50;64.10;;;;;;5025175;28;20462;-52
2022/05/31 02:35:20;;;;;;;3.00;2.80;;;9.50;62.20;;;;;;5026098;28;20550;-53
2022/05/31 02:37:47;;;;;;;4.03;2.90;;;9.50;60.80;;;;;;5025896;28;20593;-51
2022/05/31 02:40:13;;;;;;;3.47;3.20;;;9.40;59.10;;;;;;5026283;28;20546;-53
2022/05/31 02:42:42;;;;;;;3.70;2.90;;;9.40;61.60;;;;;;5024321;28;20554;-53
2022/05/31 02:45:10;;;;;;;3.33;3.00;;;9.30;55.40;;;;;;5023735;28;20501;-52
2022/05/31 02:47:37;;;;;;;3.53;3.23;;;9.20;54.60;;;;;;5026912;28;20458;-52
2022/05/31 02:50:05;;;;;;;3.20;3.00;;;9.20;50.10;;;;;;5024286;28;20466;-52
2022/05/31 02:52:32;;;;;;;6.70;3.07;;;9.10;52.30;;;;;;5023351;28;20467;-52
2022/05/31 02:54:59;;;;;;;2.50;2.30;;;9.10;48.40;;;;;;5031751;28;20561;-51
2022/05/31 02:57:25;;;;;;;5.80;2.93;;;9.10;43.60;;;;;;5029177;28;20520;-53
2022/05/31 02:59:53;;;;;;;3.93;2.87;;;9.10;45.80;;;;;;5026165;28;20561;-53
2022/05/31 03:02:20;;;;;;;9.47;3.13;;;9.00;45.00;;;;;;5024896;28;20546;-52
2022/05/31 03:04:46;;;;;;;3.57;2.70;;;9.00;41.70;;;;;;5025175;28;20565;-52
2022/05/31 03:07:13;;;;;;;3.67;2.97;;;9.00;38.30;;;;;;5023799;28;20545;-51
2022/05/31 03:09:40;;;;;;;3.33;3.03;;;8.90;44.80;;;;;;5025795;28;20540;-52
2022/05/31 03:12:12;;;;;;;4.23;2.97;;;8.90;41.20;;;;;;5024778;28;21434;-52
2022/05/31 03:14:43;;;;;;;3.80;3.30;;;8.80;44.50;;;;;;5023561;28;20522;-52
2022/05/31 03:17:18;;;;;;;3.07;2.87;;;8.80;39.20;;;;;;5026451;28;20494;-51
2022/05/31 03:19:50;;;;;;;4.13;2.57;;;8.80;39.10;;;;;;5026100;28;21051;-52
2022/05/31 03:22:21;;;;;;;5.67;3.30;;;8.70;39.70;;;;;;5021207;28;20550;-52
2022/05/31 03:24:52;;;;;;;3.27;2.97;;;8.70;35.40;;;;;;5024985;28;20562;-52
2022/05/31 03:27:19;;;;;;;3.13;2.80;;;8.70;35.20;;;;;;5025224;28;20584;-52
2022/05/31 03:29:48;;;;;;;6.37;3.30;;;8.80;32.00;;;;;;5025463;28;20916;-53
2022/05/31 03:32:16;;;;;;;3.80;2.57;;;8.70;35.90;;;;;;5025112;28;20548;-52
2022/05/31 03:34:43;;;;;;;5.20;3.27;;;8.80;36.00;;;;;;5024467;28;20510;-51
2022/05/31 03:37:10;;;;;;;2.90;2.70;;;8.70;38.00;;;;;;5026517;28;20911;-52
2022/05/31 03:39:37;;;;;;;5.63;3.37;;;8.70;33.10;;;;;;5020384;28;20550;-51
2022/05/31 03:42:06;;;;;;;4.53;3.10;;;8.80;35.10;;;;;;5021981;28;20461;-53
2022/05/31 03:44:32;;;;;;;5.33;3.07;;;8.70;37.50;;;;;;5019194;28;20569;-52
2022/05/31 03:46:59;;;;;;;4.27;2.67;;;8.80;32.40;;;;;;5024444;28;20538;-52
2022/05/31 03:49:27;;;;;;;5.10;2.90;;;8.80;36.90;;;;;;5024850;28;20550;-53
2022/05/31 03:51:54;;;;;;;3.10;2.90;;;8.70;43.00;;;;;;5025204;28;20877;-52
2022/05/31 03:54:20;;;;;;;4.03;3.27;;;8.70;39.80;;;;;;5024221;28;21520;-51
2022/05/31 03:56:47;;;;;;;7.30;3.93;;;8.80;44.70;;;;;;5023892;28;20554;-52
2022/05/31 03:59:13;;;;;;;2.80;2.60;;;8.80;42.70;;;;;;5025669;28;20579;-52
2022/05/31 04:01:40;;;;;;;4.00;3.17;;;8.80;38.30;;;;;;5021956;28;20550;-52
2022/05/31 04:04:06;;;;;;;4.70;3.40;;;8.80;41.60;;;;;;5020859;28;20557;-52
2022/05/31 04:06:35;;;;;;;4.00;3.30;;;8.80;37.70;;;;;;5019378;28;20471;-51
2022/05/31 04:09:01;;;;;;;5.07;3.70;;;8.90;40.70;;;;;;5020913;28;20488;-53
2022/05/31 04:11:28;;;;;;;6.77;3.30;;;8.90;38.70;;;;;;5020484;28;20963;-51
2022/05/31 04:13:55;;;;;;;4.70;3.30;;;8.90;35.80;;;;;;5024209;28;20941;-51
2022/05/31 04:16:22;;;;;;;7.83;3.10;;;8.90;34.20;;;;;;5023921;28;20493;-53
2022/05/31 04:18:49;;;;;;;4.07;2.67;;;8.90;32.50;;;;;;5024519;28;20505;-54
2022/05/31 04:21:18;;;;;;;8.13;3.40;;;9.00;33.60;;;;;;5024345;28;20550;-52
2022/05/31 04:23:59;;;;;;;6.47;3.37;;;9.10;32.70;;;;;;5022738;28;20487;-52
2022/05/31 04:26:27;;;;;;;4.40;3.30;;;9.10;32.20;;;;;;5023318;28;20501;-53
2022/05/31 04:28:55;;;;;;;5.40;3.10;;;9.20;34.20;;;;;;5023926;28;20922;-52
2022/05/31 04:31:21;;;;;;;4.93;3.33;;;9.30;33.00;;;;;;5023671;28;20486;-52
2022/05/31 04:33:48;;;;;;;3.50;3.23;;;9.30;34.40;;;;;;5024610;28;20582;-52
2022/05/31 04:36:17;;;;;;;4.00;2.90;;;9.40;34.20;;;;;;5026038;28;20549;-52
2022/05/31 04:38:43;;;;;;;3.77;3.43;;;9.40;36.60;;;;;;5023851;28;21106;-51
2022/05/31 04:41:18;;;;;;;4.97;3.17;;;9.50;33.70;;;;;;5022136;28;21205;-52
2022/05/31 04:43:45;;;;;;;5.53;4.20;;;9.50;36.40;;;;;;5021658;28;20485;-52
2022/05/31 04:46:13;;;;;;;10.40;3.80;;;9.50;38.10;;;;;;5023246;28;20569;-51
2022/05/31 04:48:39;;;;;;;3.47;3.07;;;9.50;38.30;;;;;;5024223;28;20455;-53
2022/05/31 04:51:06;;;;;;;6.27;3.40;;;9.60;33.80;;;;;;5023343;28;20566;-52
2022/05/31 04:53:33;;;;;;;4.47;3.77;;;9.70;40.20;;;;;;5023367;28;20482;-52
2022/05/31 04:56:01;;;;;;;9.30;3.50;;;9.70;39.80;;;;;;5026005;28;20517;-52
2022/05/31 04:58:29;;;;;;;4.37;3.70;;;9.70;44.50;;;;;;5025202;28;20923;-52
2022/05/31 05:00:56;;;;;;;5.10;3.30;;;9.80;42.10;;;;;;5026896;28;20561;-51
2022/05/31 05:03:23;;;;;;;6.07;4.23;;;9.80;40.40;;;;;;5028908;28;20466;-51
2022/05/31 05:05:49;;;;;;;6.33;3.53;;;9.90;40.80;;;;;;5028256;28;20553;-51
2022/05/31 05:08:16;;;;;;;7.00;4.30;;;9.90;40.80;;;;;;5026201;28;20541;-52
2022/05/31 05:10:45;;;;;;;5.00;3.63;;;10.00;40.90;;;;;;5028513;28;20568;-51
2022/05/31 05:13:11;;;;;;;4.30;3.40;;;10.00;39.70;;;;;;5027563;28;20482;-52
2022/05/31 05:15:41;;;;;;;5.20;3.63;;;10.10;37.90;;;;;;5026223;28;20582;-51
2022/05/31 05:18:07;;;;;;;7.50;3.53;;;10.10;40.40;;;;;;5025962;28;22532;-52
2022/05/31 05:20:36;;;;;;;5.20;3.83;;;10.10;44.70;;;;;;5028348;28;20505;-53
2022/05/31 05:23:04;;;;;;;6.83;3.77;;;10.20;53.40;;;;;;5026648;28;20458;-52
2022/05/31 05:25:30;;;;;;;16.40;3.67;;;10.20;56.60;;;;;;5028334;28;21027;-52
2022/05/31 05:27:57;;;;;;;3.50;3.30;;;10.30;56.80;;;;;;5028776;28;20574;-53
2022/05/31 05:30:40;;;;;;;5.13;3.10;;;10.30;58.20;;;;;;5029545;28;20566;-51
2022/05/31 05:33:10;;;;;;;5.90;3.27;;;10.30;61.70;;;;;;5019681;28;20470;-52
2022/05/31 05:35:36;;;;;;;4.60;2.93;;;10.40;68.70;;;;;;5026670;28;20462;-51
2022/05/31 05:38:04;;;;;;;3.50;2.97;;;10.40;76.00;;;;;;5025543;28;20546;-52
2022/05/31 05:40:30;;;;;;;4.67;3.10;;;10.50;77.10;;;;;;5027359;28;20823;-51
2022/05/31 05:42:57;;;;;;;7.67;3.10;;;10.50;81.60;;;;;;5024168;28;20546;-52
2022/05/31 05:45:23;;;;;;;4.57;3.20;;;10.60;87.60;;;;;;5023323;28;21080;-52
2022/05/31 05:47:50;;;;;;;3.40;3.17;;;10.60;94.80;;;;;;5023826;28;20459;-52
2022/05/31 05:50:18;;;;;;;3.30;2.63;;;10.70;95.80;;;;;;5023760;28;20892;-51
2022/05/31 05:52:49;;;;;;;7.67;3.10;;;10.70;98.20;;;;;;5023186;28;20547;-52
2022/05/31 05:55:16;;;;;;;3.50;2.73;;;10.80;99.90;;;;;;5019902;28;20550;-52
2022/05/31 05:57:43;;;;;;;4.33;2.30;;;10.80;99.90;;;;;;5024369;28;20546;-53
2022/05/31 06:00:10;;;;;;;2.70;2.50;;;10.90;99.90;;;;;;5022210;28;20578;-52
2022/05/31 06:02:41;;;;;;;2.87;2.23;;;11.00;99.90;;;;;;5025089;28;21047;-51
2022/05/31 06:05:10;;;;;;;7.80;2.00;;;11.10;99.90;;;;;;5026438;28;20532;-53
2022/05/31 06:07:42;;;;;;;5.53;1.90;;;11.10;99.90;;;;;;5026163;28;20494;-51
2022/05/31 06:10:14;;;;;;;7.10;2.10;;;11.20;99.90;;;;;;5057954;22;20584;-49
2022/05/31 06:12:44;;;;;;;2.50;2.00;;;11.30;99.90;;;;;;5041621;28;20549;-50
2022/05/31 06:15:15;;;;;;;2.37;1.83;;;11.40;99.90;;;;;;5046060;28;20572;-49
2022/05/31 06:17:46;;;;;;;5.53;1.80;;;11.50;99.90;;;;;;5046969;28;20535;-50
2022/05/31 06:20:13;;;;;;;1.50;1.40;;;11.60;99.90;;;;;;5024388;28;20581;-49
2022/05/31 06:22:42;;;;;;;3.30;1.87;;;11.70;99.90;;;;;;5020899;28;22695;-50
2022/05/31 06:25:12;;;;;;;4.83;1.77;;;11.80;99.90;;;;;;5029317;28;20984;-49
2022/05/31 06:27:38;;;;;;;4.77;1.60;;;12.00;99.90;;;;;;5032165;28;20886;-50
2022/05/31 06:30:06;;;;;;;2.30;1.50;;;12.00;99.90;;;;;;5016863;28;21307;-49
2022/05/31 06:32:33;;;;;;;5.23;1.40;;;12.10;99.90;;;;;;5019263;28;20554;-50
2022/05/31 06:34:59;;;;;;;6.63;2.00;;;12.20;26.10;;;;;;5026094;28;20550;-49
2022/05/31 06:37:28;;;;;;;4.20;2.77;;;12.40;45.40;;;;;;5027128;28;20463;-49
2022/05/31 06:39:57;;;;;;;4.10;1.73;;;12.40;44.10;;;;;;5029197;28;20656;-50
2022/05/31 06:42:24;;;;;;;3.17;1.87;;;12.50;41.10;;;;;;5022671;28;20459;-50
2022/05/31 06:44:50;;;;;;;3.03;1.60;;;12.60;52.70;;;;;;5024313;28;20486;-50
2022/05/31 06:47:17;;;;;;;5.97;1.80;;;12.70;66.20;;;;;;5025699;28;20537;-50
2022/05/31 06:49:44;;;;;;;6.57;2.27;;;12.80;65.70;;;;;;5023703;28;20927;-49
2022/05/31 06:57:46;;;;;;;2.70;2.00;;;13.00;74.80;;;;;;5021371;28;20517;-50
2022/05/31 07:00:16;;;;;;;6.10;2.50;;;13.10;82.40;;;;;;5022192;28;20837;-49
2022/05/31 07:02:42;;;;;;;5.93;2.20;;;13.10;77.60;;;;;;5017777;28;20975;-48
2022/05/31 07:05:11;;;;;;;6.03;2.60;;;13.10;87.10;;;;;;5020196;28;20577;-50
2022/05/31 07:07:38;;;;;;;6.37;2.53;;;13.20;91.50;;;;;;5024594;28;20458;-49
2022/05/31 07:10:07;;;;;;;10.43;2.33;;;13.20;91.50;;;;;;5025598;28;20617;-49
2022/05/31 07:12:35;;;;;;;4.63;1.50;;;13.30;92.80;;;;;;5021629;28;21264;-50
2022/05/31 07:15:02;;;;;;;6.30;2.33;;;13.40;94.80;;;;;;5028654;28;20494;-50
2022/05/31 07:17:29;;;;;;;3.80;2.23;;;13.50;93.60;;;;;;5026389;28;20559;-50
2022/05/31 07:19:55;;;;;;;3.80;2.13;;;13.60;99.90;;;;;;5022919;28;20614;-50
2022/05/31 07:22:22;;;;;;;3.07;2.10;;;13.60;99.90;;;;;;5023743;28;20873;-50
2022/05/31 07:24:49;;;;;;;7.27;2.90;;;13.70;99.90;;;;;;5026068;28;20902;-49
2022/05/31 07:27:17;;;;;;;6.83;2.53;;;13.80;99.90;;;;;;5025000;28;20494;-50
2022/05/31 07:29:43;;;;;;;3.30;1.50;;;13.90;99.90;;;;;;5021587;28;20514;-50
2022/05/31 07:32:10;;;;;;;6.03;2.20;;;14.00;99.90;;;;;;5019700;28;20550;-50
2022/05/31 07:34:36;;;;;;;4.30;1.87;;;14.00;99.90;;;;;;5025831;28;20548;-49
2022/05/31 07:37:03;;;;;;;6.40;2.60;;;14.00;99.90;;;;;;5028185;28;20586;-50
2022/05/31 07:39:30;;;;;;;4.10;1.90;;;14.00;99.90;;;;;;5026793;28;20615;-49
2022/05/31 07:41:57;;;;;;;4.50;2.10;;;14.00;99.90;;;;;;5019140;28;21016;-51
2022/05/31 07:44:26;;;;;;;7.50;1.90;;;14.00;99.90;;;;;;5023205;28;20469;-50
2022/05/31 07:46:53;;;;;;;4.23;1.60;;;14.10;99.90;;;;;;5029939;28;21000;-50
2022/05/31 07:49:20;;;;;;;1.97;1.43;;;14.30;99.90;;;;;;5025688;28;20481;-49
2022/05/31 07:51:47;;;;;;;5.03;2.20;;;14.30;99.90;;;;;;5028961;28;20549;-50
2022/05/31 07:54:14;;;;;;;3.10;2.23;;;14.40;99.90;;;;;;5030898;28;20495;-49
2022/05/31 07:56:41;;;;;;;4.37;1.90;;;14.50;99.90;;;;;;5028957;28;20545;-50
2022/05/31 07:59:08;;;;;;;3.03;2.17;;;14.50;99.90;;;;;;5028195;28;20531;-50
2022/05/31 08:01:36;;;;;;;5.00;2.00;;;14.60;99.90;;;;;;5027148;28;22218;-49
2022/05/31 08:04:03;;;;;;;4.73;2.50;;;14.60;99.90;;;;;;5024891;28;20498;-49
2022/05/31 08:06:32;;;;;;;3.43;1.87;;;14.80;99.90;;;;;;5019355;28;20474;-49
2022/05/31 08:08:59;;;;;;;1.93;1.77;;;14.80;99.90;;;;;;5018212;28;20583;-49
2022/05/31 08:11:29;;;;;;;6.33;1.80;;;14.90;99.90;;;;;;5022029;28;20953;-49
2022/05/31 08:13:57;;;;;;;6.20;2.50;;;15.10;99.90;;;;;;5021738;28;20463;-50
2022/05/31 08:16:26;;;;;;;2.70;1.67;;;15.10;99.90;;;;;;5022923;28;20927;-49
2022/05/31 08:18:56;;;;;;;8.53;1.80;;;15.10;99.90;;;;;;5018540;28;21233;-50
2022/05/31 08:21:27;;;;;;;4.67;2.37;;;15.20;99.90;;;;;;5019975;28;20455;-50
2022/05/31 08:23:54;;;;;;;2.30;1.70;;;15.30;99.90;;;;;;5020354;28;20491;-50
2022/05/31 08:26:20;;;;;;;3.30;2.13;;;15.40;99.90;;;;;;5022312;28;20558;-50
2022/05/31 08:28:47;;;;;;;3.57;1.47;;;15.40;99.90;;;;;;5023518;28;20514;-50
2022/05/31 08:31:17;;;;;;;3.90;1.60;;;15.40;99.90;;;;;;5021551;28;20550;-49
2022/05/31 08:33:44;;;;;;;3.23;1.77;;;15.30;99.90;;;;;;5027611;28;20494;-49
2022/05/31 08:36:12;;;;;;;3.77;1.60;;;15.20;99.90;;;;;;5031860;28;20550;-50
2022/05/31 08:38:40;;;;;;;4.87;2.60;;;15.20;99.90;;;;;;5031122;28;20510;-50
2022/05/31 08:41:16;;;;;;;3.50;1.53;;;15.20;99.90;;;;;;5027587;28;20533;-50
2022/05/31 08:44:00;;;;;;;4.43;1.90;;;15.40;99.90;;;;;;5026650;28;20465;-50
2022/05/31 08:46:34;;;;;;;2.73;1.70;;;15.60;99.90;;;;;;5026644;28;20458;-49
2022/05/31 08:49:08;;;;;;;10.03;1.60;;;15.80;99.90;;;;;;5031196;28;20589;-50
2022/05/31 08:51:53;;;;;;;4.80;1.93;;;15.90;99.90;;;;;;5026323;28;20494;-50
2022/05/31 08:57:15;;;;;;;4.67;2.07;;;15.90;1.40;;;;;;5014560;28;20575;-50
2022/05/31 08:59:49;;;;;;;4.00;1.40;;;15.90;99.90;;;;;;5028301;28;20580;-49
2022/05/31 09:02:19;;;;;;;2.30;1.33;;;16.00;99.90;;;;;;5029738;28;20553;-51
2022/05/31 09:04:53;;;;;;;4.20;1.93;;;16.00;99.90;;;;;;5028691;28;20497;-50
2022/05/31 09:07:25;;;;;;;9.30;1.67;;;16.10;99.90;;;;;;5027207;28;20482;-49
2022/05/31 09:09:56;;;;;;;4.53;2.20;;;16.30;99.90;;;;;;5025972;28;20585;-49
2022/05/31 09:12:33;;;;;;;8.57;2.00;;;16.50;99.90;;;;;;5029533;28;20463;-50
2022/05/31 09:15:05;;;;;;;2.43;1.70;;;16.50;99.90;;;;;;5029680;28;20533;-50
2022/05/31 09:17:39;;;;;;;6.80;1.60;;;16.50;99.90;;;;;;5023563;28;22102;-49
2022/05/31 09:20:12;;;;;;;5.40;1.57;;;16.60;99.90;;;;;;5026946;28;20923;-50
2022/05/31 09:22:44;;;;;;;4.93;1.20;;;16.80;99.90;;;;;;5029749;28;20554;-50
2022/05/31 09:25:11;;;;;;;2.70;1.33;;;17.00;99.90;;;;;;5022986;28;20582;-50
2022/05/31 09:27:42;;;;;;;1.87;1.60;;;17.10;99.90;;;;;;5014796;28;21049;-49
2022/05/31 09:30:12;;;;;;;2.23;1.30;;;17.10;99.90;;;;;;5027946;28;20577;-50
2022/05/31 09:32:52;;;;;;;1.90;1.67;;;16.90;99.90;;;;;;5027059;28;20964;-49
2022/05/31 09:35:32;;;;;;;2.30;1.30;;;16.50;99.90;;;;;;5026191;28;20457;-50
2022/05/31 09:38:18;;;;;;;2.33;1.33;;;16.60;99.90;;;;;;5023999;28;20458;-49
2022/05/31 09:40:47;;;;;;;1.70;1.40;;;16.90;99.90;;;;;;5025379;28;20467;-50
2022/05/31 09:43:23;;;;;;;3.87;1.50;;;17.20;99.90;;;;;;5028399;28;20556;-49
2022/05/31 09:45:55;;;;;;;2.30;1.33;;;17.40;99.90;;;;;;5025764;28;21581;-50
2022/05/31 09:48:22;;;;;;;3.70;1.10;;;17.20;99.90;;;;;;5027949;28;20522;-48
2022/05/31 09:50:49;;;;;;;5.07;2.07;;;17.00;99.90;;;;;;5023707;28;20538;-50
2022/05/31 09:59:09;;;;;;;6.13;1.60;;;16.70;99.90;;;;;;4972036;28;20502;-50
2022/05/31 10:01:43;;;;;;;5.83;1.30;;;16.50;99.90;;;;;;5026098;28;20458;-49
2022/05/31 10:04:13;;;;;;;6.90;1.80;;;16.40;99.90;;;;;;5028614;28;20462;-49
2022/05/31 10:06:56;;;;;;;12.90;1.63;;;16.30;99.90;;;;;;5027298;28;20606;-49
2022/05/31 10:09:30;;;;;;;4.33;1.70;;;16.20;99.90;;;;;;5028896;28;20598;-49
2022/05/31 10:12:20;;;;;;;4.10;1.33;;;16.30;99.90;;;;;;5027707;28;20560;-49
2022/05/31 10:14:49;;;;;;;2.50;1.20;;;16.20;99.90;;;;;;5023531;28;20478;-49
2022/05/31 10:17:32;;;;;;;5.50;1.87;;;16.50;99.90;;;;;;5028617;28;20835;-49
2022/05/31 10:20:15;;;;;;;1.47;1.30;;;16.90;99.90;;;;;;5028273;28;21015;-49
2022/05/31 10:22:50;;;;;;;3.57;1.23;;;17.20;99.90;;;;;;5023193;28;20554;-49
2022/05/31 10:25:21;;;;;;;4.23;1.80;;;17.20;99.90;;;;;;5029267;28;20647;-49
2022/05/31 10:27:48;;;;;;;2.43;1.37;;;17.20;99.90;;;;;;5020603;28;20491;-49
2022/05/31 10:30:20;;;;;;;5.27;1.93;;;17.30;99.90;;;;;;5026835;28;21067;-49
2022/05/31 10:32:51;;;;;;;1.67;1.20;;;17.40;99.90;;;;;;5023291;28;20966;-50
2022/05/31 10:35:22;;;;;;;2.97;1.70;;;17.60;99.90;;;;;;5028770;28;22184;-51
2022/05/31 10:37:57;;;;;;;6.23;1.70;;;17.70;99.90;;;;;;5031016;28;20495;-52
2022/05/31 10:40:28;;;;;;;1.70;1.60;;;17.50;99.90;;;;;;5032761;28;20860;-50
2022/05/31 10:42:59;;;;;;;3.03;1.50;;;17.30;99.90;;;;;;5025830;28;21016;-50
2022/05/31 10:45:31;;;;;;;5.53;1.67;;;17.10;99.90;;;;;;5026165;28;20546;-49
2022/05/31 10:47:59;;;;;;;3.53;1.77;;;17.00;99.90;;;;;;5027712;28;20461;-49
2022/05/31 10:50:33;;;;;;;1.43;1.30;;;17.00;99.90;;;;;;5024311;28;20501;-49
2022/05/31 10:53:13;;;;;;;2.20;1.43;;;17.00;99.90;;;;;;5023008;28;20461;-49
2022/05/31 10:55:44;;;;;;;7.03;1.50;;;17.30;99.90;;;;;;5023077;28;20546;-49
2022/05/31 10:58:38;;;;;;;1.47;1.37;;;17.50;99.90;;;;;;5027612;28;20932;-49
2022/05/31 11:01:14;;;;;;;4.23;1.57;;;17.70;99.90;;;;;;5024286;28;20602;-49
2022/05/31 11:03:48;;;;;;;16.13;1.30;;;17.80;99.90;;;;;;5028119;28;20549;-50
2022/05/31 11:06:30;;;;;;;2.13;1.23;;;18.00;99.90;;;;;;5020763;28;22270;-50
2022/05/31 11:12:07;;;;;;;1.70;1.33;;;17.80;99.90;;;;;;5020794;28;20446;-49
2022/05/31 11:15:05;;;;;;;2.13;1.50;;;18.00;99.90;;;;;;5017565;28;20883;-49
2022/05/31 11:18:05;;;;;;;17.80;1.40;;;18.20;99.90;;;;;;4979573;28;20569;-50
2022/05/31 11:20:37;;;;;;;21.47;2.47;;;18.40;99.90;;;;;;5004015;28;21042;-49
2022/05/31 11:23:17;;;;;;;1.50;1.40;;;18.60;99.90;;;;;;5025630;28;20466;-50
2022/05/31 11:26:10;;;;;;;59.27;3.37;;;18.70;99.90;;;;;;5027143;28;20956;-50
2022/05/31 11:28:51;;;;;;;4.47;1.40;;;18.90;99.90;;;;;;5029394;28;20574;-50
2022/05/31 11:31:30;;;;;;;82.10;3.23;;;18.80;99.90;;;;;;5028954;28;20474;-50
2022/05/31 11:34:21;;;;;;;3.63;1.50;;;18.50;99.90;;;;;;5019880;28;20461;-50
2022/05/31 11:37:02;;;;;;;2.43;1.53;;;18.00;99.90;;;;;;5018976;28;20550;-50
2022/05/31 11:39:48;;;;;;;6.73;1.47;;;17.80;99.90;;;;;;5014963;28;20581;-50
2022/05/31 11:42:29;;;;;;;2.10;1.40;;;17.70;99.90;;;;;;5020957;28;20559;-50
2022/05/31 11:45:11;;;;;;;1.70;1.50;;;18.00;99.90;;;;;;5020239;28;20562;-50
2022/05/31 11:48:02;;;;;;;2.90;1.50;;;18.20;99.90;;;;;;5022507;28;20558;-50
2022/05/31 11:50:38;;;;;;;4.07;1.30;;;18.30;99.90;;;;;;5024699;28;20538;-49
2022/05/31 11:53:25;;;;;;;4.07;1.57;;;18.30;99.90;;;;;;5021906;28;20549;-54
2022/05/31 11:55:58;;;;;;;4.40;1.43;;;18.30;99.90;;;;;;5028742;28;20542;-50
2022/05/31 11:58:31;;;;;;;3.90;1.20;;;18.30;99.90;;;;;;5023545;28;20537;-50
2022/05/31 12:01:11;;;;;;;1.90;1.40;;;18.30;99.90;;;;;;5026297;28;20510;-49
2022/05/31 12:03:47;;;;;;;2.70;1.47;;;18.20;99.90;;;;;;5025877;28;20561;-49
2022/05/31 12:06:19;;;;;;;2.50;1.47;;;18.20;99.90;;;;;;5030159;28;20540;-49
2022/05/31 12:08:52;;;;;;;2.63;1.77;;;17.90;99.90;;;;;;5038643;22;20523;-52
2022/05/31 12:11:24;;;;;;;3.73;1.50;;;17.80;99.90;;;;;;5026252;28;20446;-51
2022/05/31 12:13:52;;;;;;;3.70;1.53;;;17.70;99.90;;;;;;5037936;28;20548;-51
2022/05/31 12:16:21;;;;;;;7.30;1.40;;;17.90;99.90;;;;;;5029996;28;20509;-52
2022/05/31 12:18:57;;;;;;;3.80;1.80;;;18.00;99.90;;;;;;5021824;28;20578;-52
2022/05/31 12:21:30;;;;;;;4.97;1.70;;;18.00;99.90;;;;;;5020395;28;20481;-52
2022/05/31 12:24:05;;;;;;;4.40;1.43;;;18.10;99.90;;;;;;5022269;28;20463;-51
2022/05/31 12:26:38;;;;;;;7.80;1.50;;;18.00;99.90;;;;;;5021919;28;21027;-53
2022/05/31 12:29:13;;;;;;;3.73;1.70;;;17.90;99.90;;;;;;5018677;28;20475;-51
2022/05/31 12:31:42;;;;;;;6.00;1.73;;;17.80;99.90;;;;;;5018510;28;20549;-51
2022/05/31 12:34:15;;;;;;;9.80;1.40;;;17.70;99.90;;;;;;5021385;28;20558;-52
2022/05/31 12:36:58;;;;;;;5.47;3.03;;;17.70;99.90;;;;;;5015127;28;20550;-51
2022/05/31 12:39:30;;;;;;;4.43;1.93;;;17.60;99.90;;;;;;5018051;28;20826;-52
2022/05/31 12:41:57;;;;;;;7.63;1.60;;;17.60;99.90;;;;;;5011264;28;20467;-53
2022/05/31 12:44:29;;;;;;;13.33;2.03;;;17.60;99.90;;;;;;5013345;28;20454;-51
2022/05/31 12:47:12;;;;;;;3.60;2.40;;;17.70;99.90;;;;;;5017602;28;20549;-53
2022/05/31 12:49:51;;;;;;;3.33;1.70;;;17.70;99.90;;;;;;5018941;28;20571;-52
2022/05/31 12:52:54;;;;;;;4.17;1.53;;;17.70;99.90;;;;;;5019051;28;20520;-52
2022/05/31 12:55:54;;;;;;;1.53;1.43;;;17.70;99.90;;;;;;5021406;28;20465;-51
2022/05/31 12:58:45;;;;;;;1.83;1.70;;;17.70;99.90;;;;;;5018643;28;20494;-52
2022/05/31 13:01:35;;;;;;;3.43;1.80;;;17.70;99.90;;;;;;5018820;28;20486;-52
2022/05/31 13:04:17;;;;;;;1.90;1.80;;;17.80;99.90;;;;;;5020371;28;20463;-51
2022/05/31 13:07:04;;;;;;;4.60;1.87;;;18.00;99.90;;;;;;5018174;28;20545;-51
2022/05/31 13:09:37;;;;;;;4.33;1.60;;;18.20;99.90;;;;;;5015785;28;20501;-51
2022/05/31 13:20:33;;;;;;;5.37;2.70;;;18.10;99.90;;;;;;5021606;28;20485;-52
2022/05/31 13:23:08;;;;;;;2.87;1.40;;;17.90;99.90;;;;;;5020988;28;20467;-51
2022/05/31 13:25:42;;;;;;;2.03;1.63;;;17.90;99.90;;;;;;5025103;28;20553;-52
2022/05/31 13:28:09;;;;;;;4.17;1.93;;;17.90;99.90;;;;;;5028023;28;20561;-51
2022/05/31 13:30:43;;;;;;;3.73;2.10;;;18.20;99.90;;;;;;5029219;28;20549;-52
2022/05/31 13:33:15;;;;;;;4.00;2.77;;;18.40;99.90;;;;;;5024515;28;20553;-52
2022/05/31 13:35:43;;;;;;;2.90;2.13;;;18.70;99.90;;;;;;5026543;28;20473;-52